createdAt,value
2019-04-03T00:00:00.795Z,968.2
2019-04-03T00:01:05.004Z,968.1
2019-04-03T00:02:06.234Z,968.1
2019-04-03T00:03:07.699Z,968.2
2019-04-03T00:04:08.938Z,968.1
2019-04-03T00:05:12.587Z,968.1
2019-04-03T00:06:13.826Z,968.2
2019-04-03T00:07:15.054Z,968.2
2019-04-03T00:08:16.317Z,968.1
2019-04-03T00:09:17.571Z,968.1
2019-04-03T00:10:21.249Z,968
2019-04-03T00:11:22.498Z,968.1
2019-04-03T00:12:23.891Z,968.1
2019-04-03T00:13:25.462Z,968.1
2019-04-03T00:14:26.736Z,968.1
2019-04-03T00:15:27.971Z,968.1
2019-04-03T00:16:29.353Z,968.1
2019-04-03T00:17:30.609Z,968.1
2019-04-03T00:18:31.906Z,968.1
2019-04-03T00:19:33.149Z,968.1
2019-04-03T00:20:34.602Z,968.2
2019-04-03T00:21:35.826Z,968.2
2019-04-03T00:22:37.074Z,968.2
2019-04-03T00:23:38.348Z,968.2
2019-04-03T00:24:39.573Z,968.1
2019-04-03T00:25:41.236Z,968.3
2019-04-03T00:26:42.506Z,968.2
2019-04-03T00:27:43.749Z,968.2
2019-04-03T00:28:46.104Z,968.2
2019-04-03T00:29:47.648Z,968.2
2019-04-03T00:30:48.991Z,968.2
2019-04-03T00:31:52.953Z,968.2
2019-04-03T00:32:54.733Z,968.2
2019-04-03T00:33:56.555Z,968.2
2019-04-03T00:34:57.897Z,968.2
2019-04-03T00:35:59.154Z,968.1
2019-04-03T00:37:00.484Z,968.1
2019-04-03T00:38:01.743Z,968.1
2019-04-03T00:39:03.330Z,968.1
2019-04-03T00:40:04.634Z,968.1
2019-04-03T00:41:05.860Z,968.2
2019-04-03T00:42:07.135Z,968.1
2019-04-03T00:43:08.382Z,968.1
2019-04-03T00:44:09.658Z,968.1
2019-04-03T00:45:10.892Z,968.1
2019-04-03T00:46:12.130Z,968.1
2019-04-03T00:47:13.432Z,968.1
2019-04-03T00:48:14.945Z,968.1
2019-04-03T00:49:16.244Z,968
2019-04-03T00:50:17.494Z,968.1
2019-04-03T00:51:18.726Z,968
2019-04-03T00:52:20.041Z,968
2019-04-03T00:53:21.290Z,968.1
2019-04-03T00:54:22.554Z,968
2019-04-03T00:55:24.865Z,968
2019-04-03T00:56:28.130Z,968
2019-04-03T00:57:29.380Z,968.1
2019-04-03T00:58:30.604Z,968
2019-04-03T00:59:31.869Z,967.9
2019-04-03T01:00:33.108Z,968
2019-04-03T01:01:34.414Z,967.9
2019-04-03T01:02:35.724Z,967.9
2019-04-03T01:03:36.937Z,968
2019-04-03T01:04:38.656Z,967.9
2019-04-03T01:05:39.921Z,968
2019-04-03T01:06:41.151Z,967.9
2019-04-03T01:07:42.633Z,967.9
2019-04-03T01:08:43.925Z,967.9
2019-04-03T01:09:45.404Z,967.9
2019-04-03T01:10:46.638Z,967.9
2019-04-03T01:11:48.036Z,967.9
2019-04-03T01:12:49.363Z,967.9
2019-04-03T01:13:51.780Z,967.9
2019-04-03T01:14:53.072Z,967.8
2019-04-03T01:15:54.402Z,967.9
2019-04-03T01:16:55.820Z,967.9
2019-04-03T01:18:00.398Z,967.8
2019-04-03T01:19:01.744Z,967.8
2019-04-03T01:20:04.519Z,967.9
2019-04-03T01:21:07.901Z,967.9
2019-04-03T01:22:09.214Z,967.9
2019-04-03T01:23:10.671Z,967.8
2019-04-03T01:24:11.898Z,967.8
2019-04-03T01:25:14.428Z,967.8
2019-04-03T01:26:15.673Z,967.8
2019-04-03T01:27:16.939Z,967.6
2019-04-03T01:28:18.162Z,967.8
2019-04-03T01:29:19.436Z,967.8
2019-04-03T01:30:20.727Z,967.7
2019-04-03T01:31:21.996Z,967.8
2019-04-03T01:32:23.302Z,967.8
2019-04-03T01:33:24.595Z,967.8
2019-04-03T01:34:26.074Z,967.8
2019-04-03T01:35:27.754Z,967.7
2019-04-03T01:36:29.090Z,967.6
2019-04-03T01:37:30.356Z,967.7
2019-04-03T01:38:31.602Z,967.6
2019-04-03T01:39:35.160Z,967.6
2019-04-03T01:40:36.502Z,967.6
2019-04-03T01:41:37.758Z,967.5
2019-04-03T01:42:38.996Z,967.6
2019-04-03T01:43:40.275Z,967.5
2019-04-03T01:44:41.532Z,967.5
2019-04-03T01:45:42.829Z,967.5
2019-04-03T01:46:44.090Z,967.5
2019-04-03T01:47:47.782Z,967.5
2019-04-03T01:48:49.207Z,967.5
2019-04-03T01:49:50.798Z,967.5
2019-04-03T01:50:52.160Z,967.5
2019-04-03T01:51:53.408Z,967.5
2019-04-03T01:52:54.648Z,967.4
2019-04-03T01:53:55.900Z,967.4
2019-04-03T01:54:57.143Z,967.4
2019-04-03T01:55:58.434Z,967.4
2019-04-03T01:56:59.840Z,967.4
2019-04-03T01:58:01.453Z,967.4
2019-04-03T01:59:02.672Z,967.4
2019-04-03T02:00:03.917Z,967.3
2019-04-03T02:01:06.274Z,967.4
2019-04-03T02:02:09.804Z,967.3
2019-04-03T02:03:11.660Z,967.3
2019-04-03T02:04:13.741Z,967.3
2019-04-03T02:05:15.908Z,967.3
2019-04-03T02:06:17.182Z,967.3
2019-04-03T02:07:18.406Z,967.3
2019-04-03T02:08:19.777Z,967.2
2019-04-03T02:09:21.054Z,967.2
2019-04-03T02:10:22.305Z,967.1
2019-04-03T02:11:23.582Z,967.2
2019-04-03T02:12:24.960Z,967.2
2019-04-03T02:13:26.478Z,967.2
2019-04-03T02:14:27.724Z,967.2
2019-04-03T02:15:29.913Z,967.1
2019-04-03T02:16:32.435Z,967.2
2019-04-03T02:17:33.851Z,967.2
2019-04-03T02:18:35.137Z,967.1
2019-04-03T02:19:36.396Z,967.2
2019-04-03T02:20:37.640Z,967.2
2019-04-03T02:21:39.157Z,967.2
2019-04-03T02:22:40.390Z,967.2
2019-04-03T02:23:41.750Z,967.2
2019-04-03T02:24:42.969Z,967.2
2019-04-03T02:25:44.233Z,967.1
2019-04-03T02:26:45.509Z,967.2
2019-04-03T02:27:46.888Z,967.1
2019-04-03T02:28:48.181Z,967.1
2019-04-03T02:29:49.620Z,967.1
2019-04-03T02:30:51.010Z,967
2019-04-03T02:31:53.930Z,967
2019-04-03T02:32:57.592Z,967
2019-04-03T02:34:02.688Z,967
2019-04-03T02:35:08.398Z,967
2019-04-03T02:36:13.048Z,967
2019-04-03T02:37:17.613Z,967
2019-04-03T02:38:23.124Z,967
2019-04-03T02:39:28.321Z,967.1
2019-04-03T02:40:33.088Z,967
2019-04-03T02:41:37.962Z,967
2019-04-03T02:42:42.659Z,966.9
2019-04-03T02:43:47.688Z,967
2019-04-03T02:44:52.385Z,966.9
2019-04-03T02:45:56.889Z,966.9
2019-04-03T02:47:02.044Z,966.9
2019-04-03T02:48:06.786Z,967
2019-04-03T02:49:11.381Z,966.9
2019-04-03T02:50:15.761Z,966.9
2019-04-03T02:51:20.497Z,966.9
2019-04-03T02:52:25.578Z,966.9
2019-04-03T02:53:31.089Z,966.9
2019-04-03T02:54:35.987Z,966.9
2019-04-03T02:55:40.708Z,966.7
2019-04-03T02:56:46.009Z,966.9
2019-04-03T02:57:50.394Z,966.9
2019-04-03T02:58:55.136Z,967
2019-04-03T03:00:00.401Z,967
2019-04-03T03:01:07.272Z,967
2019-04-03T03:02:13.168Z,967
2019-04-03T03:03:18.562Z,967
2019-04-03T03:04:22.633Z,967
2019-04-03T03:05:28.625Z,967
2019-04-03T03:06:33.745Z,967
2019-04-03T03:07:37.427Z,967
2019-04-03T03:08:42.508Z,967
2019-04-03T03:09:48.033Z,967
2019-04-03T03:10:53.554Z,967
2019-04-03T03:11:57.182Z,967
2019-04-03T03:13:02.698Z,967
2019-04-03T03:14:07.770Z,967
2019-04-03T03:15:12.755Z,967
2019-04-03T03:16:18.476Z,967
2019-04-03T03:17:24.012Z,967
2019-04-03T03:18:28.789Z,967
2019-04-03T03:19:33.775Z,967
2019-04-03T03:20:40.790Z,967
2019-04-03T03:21:45.453Z,967
2019-04-03T03:22:51.260Z,967
2019-04-03T03:23:57.431Z,967.1
2019-04-03T03:25:02.399Z,967.1
2019-04-03T03:26:06.241Z,967
2019-04-03T03:27:10.362Z,966.9
2019-04-03T03:28:14.761Z,967
2019-04-03T03:29:25.022Z,966.9
2019-04-03T03:30:47.811Z,967
2019-04-03T03:32:18.573Z,966.9
2019-04-03T03:33:36.153Z,966.9
2019-04-03T03:34:59.456Z,966.9
2019-04-03T03:36:09.536Z,966.9
2019-04-03T03:37:13.530Z,966.9
2019-04-03T03:38:15.276Z,966.9
2019-04-03T03:39:16.498Z,966.8
2019-04-03T03:40:18.143Z,966.8
2019-04-03T03:41:23.945Z,966.8
2019-04-03T03:42:27.634Z,966.8
2019-04-03T03:43:32.104Z,966.8
2019-04-03T03:44:38.336Z,966.8
2019-04-03T03:45:39.805Z,966.8
2019-04-03T03:46:42.269Z,966.8
2019-04-03T03:47:43.555Z,966.8
2019-04-03T03:48:45.783Z,966.8
2019-04-03T03:51:06.386Z,966.8
2019-04-03T03:52:07.680Z,966.8
2019-04-03T03:53:13.255Z,966.9
2019-04-03T03:54:18.659Z,966.9
2019-04-03T03:55:25.217Z,966.8
2019-04-03T03:56:30.488Z,966.7
2019-04-03T03:57:32.289Z,966.9
2019-04-03T03:58:33.587Z,966.8
2019-04-03T03:59:34.850Z,966.8
2019-04-03T04:00:37.531Z,966.8
2019-04-03T04:01:39.017Z,966.9
2019-04-03T04:02:44.954Z,966.8
2019-04-03T04:03:46.777Z,966.9
2019-04-03T04:04:49.871Z,966.8
2019-04-03T04:05:56.378Z,966.9
2019-04-03T04:06:59.797Z,966.9
2019-04-03T04:08:03.805Z,966.8
2019-04-03T04:09:05.563Z,966.9
2019-04-03T04:10:10.612Z,966.9
2019-04-03T04:11:12.232Z,966.9
2019-04-03T04:12:13.661Z,966.9
2019-04-03T04:13:16.449Z,966.8
2019-04-03T04:14:23.383Z,966.8
2019-04-03T04:15:30.875Z,966.9
2019-04-03T04:16:37.329Z,966.8
2019-04-03T04:17:39.183Z,966.8
2019-04-03T04:18:40.520Z,966.8
2019-04-03T04:19:41.830Z,966.9
2019-04-03T04:20:43.343Z,966.9
2019-04-03T04:21:45.872Z,966.9
2019-04-03T04:22:51.927Z,966.9
2019-04-03T04:23:57.265Z,966.9
2019-04-03T04:25:00.602Z,966.9
2019-04-03T04:26:02.601Z,966.9
2019-04-03T04:27:04.258Z,966.9
2019-04-03T04:28:08.252Z,966.9
2019-04-03T04:29:12.046Z,966.9
2019-04-03T04:30:13.588Z,966.9
2019-04-03T04:31:15.004Z,966.8
2019-04-03T04:32:16.353Z,966.9
2019-04-03T04:33:18.759Z,966.9
2019-04-03T04:34:20.339Z,966.9
2019-04-03T04:35:24.179Z,966.9
2019-04-03T04:36:25.617Z,966.9
2019-04-03T04:37:27.628Z,966.9
2019-04-03T04:38:29.110Z,966.9
2019-04-03T04:39:30.463Z,966.9
2019-04-03T04:40:32.606Z,966.9
2019-04-03T04:41:36.124Z,966.8
2019-04-03T04:42:37.749Z,966.9
2019-04-03T04:43:40.294Z,966.9
2019-04-03T04:44:42.318Z,966.9
2019-04-03T04:45:44.320Z,966.9
2019-04-03T04:46:45.688Z,966.9
2019-04-03T04:47:48.281Z,966.9
2019-04-03T04:48:52.355Z,966.9
2019-04-03T04:49:54.816Z,966.7
2019-04-03T04:50:57.198Z,966.9
2019-04-03T04:51:59.746Z,967
2019-04-03T04:53:00.992Z,967
2019-04-03T04:54:02.346Z,966.9
2019-04-03T04:55:06.937Z,967
2019-04-03T04:56:08.660Z,966.9
2019-04-03T04:57:10.282Z,966.8
2019-04-03T04:58:12.714Z,966.9
2019-04-03T04:59:14.902Z,966.3
2019-04-03T05:00:17.208Z,966.9
2019-04-03T05:01:19.011Z,966.9
2019-04-03T05:02:21.318Z,966.9
2019-04-03T05:03:23.394Z,966.9
2019-04-03T05:04:26.319Z,966.9
2019-04-03T05:05:30.979Z,966.9
2019-04-03T05:06:32.724Z,966.9
2019-04-03T05:07:34.184Z,967
2019-04-03T05:08:35.429Z,966.9
2019-04-03T05:09:36.640Z,967
2019-04-03T05:10:38.035Z,966.9
2019-04-03T05:11:40.255Z,967
2019-04-03T05:12:45.671Z,967
2019-04-03T05:13:47.969Z,967
2019-04-03T05:14:50.145Z,967
2019-04-03T05:15:54.645Z,967
2019-04-03T05:16:57.018Z,967.1
2019-04-03T05:17:59.001Z,967.1
2019-04-03T05:19:14.866Z,967.1
2019-04-03T05:20:20.549Z,967.1
2019-04-03T05:21:23.282Z,967.1
2019-04-03T05:22:25.101Z,967
2019-04-03T05:23:26.862Z,967.1
2019-04-03T05:24:29.948Z,967.1
2019-04-03T05:25:31.237Z,967.1
2019-04-03T05:26:33.448Z,967.1
2019-04-03T05:27:35.522Z,967.1
2019-04-03T05:28:36.763Z,967.1
2019-04-03T05:29:38.196Z,967.1
2019-04-03T05:30:39.588Z,967.1
2019-04-03T05:31:40.863Z,967.1
2019-04-03T05:32:45.440Z,967.2
2019-04-03T05:33:47.094Z,967.2
2019-04-03T05:34:48.338Z,967.1
2019-04-03T05:35:49.773Z,967.2
2019-04-03T05:36:51.600Z,967.1
2019-04-03T05:37:52.910Z,967.1
2019-04-03T05:38:55.034Z,967.1
2019-04-03T05:39:56.775Z,967.1
2019-04-03T05:40:58.256Z,967.1
2019-04-03T05:42:00.408Z,967.1
2019-04-03T05:43:01.852Z,967.2
2019-04-03T05:44:03.637Z,967.2
2019-04-03T05:45:05.850Z,967.2
2019-04-03T05:46:07.261Z,967.2
2019-04-03T05:47:09.397Z,967.2
2019-04-03T05:48:17.427Z,967
2019-04-03T05:49:19.981Z,967.1
2019-04-03T05:50:21.213Z,967.1
2019-04-03T05:51:22.640Z,967.2
2019-04-03T05:52:23.928Z,967.2
2019-04-03T05:53:25.354Z,967.2
2019-04-03T05:54:26.590Z,967.2
2019-04-03T05:55:28.203Z,967.2
2019-04-03T05:56:29.546Z,967.2
2019-04-03T05:57:31.091Z,966.6
2019-04-03T05:58:32.618Z,967.2
2019-04-03T05:59:34.567Z,967.1
2019-04-03T06:00:38.768Z,967.2
2019-04-03T06:01:46.203Z,967.3
2019-04-03T06:02:48.065Z,967.2
2019-04-03T06:03:49.884Z,967.3
2019-04-03T06:04:51.330Z,967.3
2019-04-03T06:05:52.711Z,967.3
2019-04-03T06:06:54.510Z,967.3
2019-04-03T06:08:00.552Z,967.3
2019-04-03T06:09:02.197Z,967.3
2019-04-03T06:10:03.625Z,967.3
2019-04-03T06:11:09.243Z,967.3
2019-04-03T06:12:14.509Z,967.4
2019-04-03T06:13:18.207Z,967.4
2019-04-03T06:14:22.745Z,967.3
2019-04-03T06:15:24.990Z,967.4
2019-04-03T06:16:26.426Z,967.4
2019-04-03T06:17:27.824Z,967.4
2019-04-03T06:18:32.483Z,967
2019-04-03T06:19:39.410Z,967.4
2019-04-03T06:20:43.954Z,967.4
2019-04-03T06:21:47.219Z,967.3
2019-04-03T06:22:51.063Z,967.3
2019-04-03T06:23:53.644Z,967.3
2019-04-03T06:24:57.677Z,967.3
2019-04-03T06:26:02.442Z,967.3
2019-04-03T06:27:04.552Z,967.3
2019-04-03T06:28:05.948Z,967.2
2019-04-03T06:29:08.766Z,967.3
2019-04-03T06:30:10.245Z,967.3
2019-04-03T06:31:11.756Z,967.2
2019-04-03T06:32:13.021Z,967.2
2019-04-03T06:33:14.553Z,967.1
2019-04-03T06:34:18.145Z,967.1
2019-04-03T06:35:19.432Z,967.1
2019-04-03T06:36:21.220Z,967.1
2019-04-03T06:37:23.385Z,967.1
2019-04-03T06:38:25.734Z,967
2019-04-03T06:39:31.832Z,967.1
2019-04-03T06:40:36.303Z,967
2019-04-03T06:41:37.878Z,967.1
2019-04-03T06:42:39.447Z,967.1
2019-04-03T06:43:40.683Z,967.1
2019-04-03T06:44:42.171Z,967
2019-04-03T06:45:44.845Z,967
2019-04-03T06:46:46.265Z,967
2019-04-03T06:47:47.514Z,967
2019-04-03T06:48:48.947Z,967
2019-04-03T06:49:54.233Z,967
2019-04-03T06:50:57.009Z,967
2019-04-03T06:52:00.511Z,967.1
2019-04-03T06:53:01.741Z,967.1
2019-04-03T06:54:07.458Z,967
2019-04-03T06:55:09.373Z,967
2019-04-03T06:56:11.354Z,967
2019-04-03T06:57:14.901Z,967
2019-04-03T06:58:18.380Z,967
2019-04-03T06:59:20.036Z,967
2019-04-03T07:00:21.395Z,967
2019-04-03T07:01:22.738Z,967
2019-04-03T07:02:27.270Z,967
2019-04-03T07:03:29.275Z,967
2019-04-03T07:04:32.297Z,967
2019-04-03T07:05:35.927Z,967
2019-04-03T07:06:37.256Z,967
2019-04-03T07:07:38.514Z,967
2019-04-03T07:08:41.690Z,967
2019-04-03T07:09:43.009Z,967
2019-04-03T07:10:55.792Z,966.8
2019-04-03T07:11:58.321Z,967.1
2019-04-03T07:12:59.587Z,967
2019-04-03T07:14:01.212Z,967
2019-04-03T07:15:04.871Z,967
2019-04-03T07:16:09.285Z,967
2019-04-03T07:17:11.741Z,967.1
2019-04-03T07:18:13.656Z,967
2019-04-03T07:19:15.120Z,967.1
2019-04-03T07:20:20.733Z,967.1
2019-04-03T07:21:27.004Z,967.1
2019-04-03T07:22:29.013Z,967.1
2019-04-03T07:23:30.919Z,967.1
2019-04-03T07:24:32.835Z,967.1
2019-04-03T07:25:35.805Z,967.1
2019-04-03T07:26:39.518Z,967.1
2019-04-03T07:27:42.959Z,967.2
2019-04-03T07:28:44.184Z,967.1
2019-04-03T07:29:46.782Z,967.1
2019-04-03T07:30:53.973Z,967.1
2019-04-03T07:31:56.110Z,967.1
2019-04-03T07:33:13.192Z,967.1
2019-04-03T07:34:17.004Z,966.9
2019-04-03T07:35:18.278Z,967.1
2019-04-03T07:36:20.015Z,967.2
2019-04-03T07:37:21.474Z,967.2
2019-04-03T07:38:30.612Z,967.1
2019-04-03T07:39:32.230Z,967.1
2019-04-03T07:40:34.317Z,967.2
2019-04-03T07:41:40.967Z,967.1
2019-04-03T07:42:42.841Z,967.1
2019-04-03T07:43:44.752Z,967.2
2019-04-03T07:44:45.998Z,967.2
2019-04-03T07:45:47.263Z,967.1
2019-04-03T07:46:49.624Z,967.2
2019-04-03T07:47:51.097Z,967.2
2019-04-03T07:48:52.832Z,967.1
2019-04-03T07:49:54.324Z,967.2
2019-04-03T07:50:55.804Z,967.2
2019-04-03T07:51:57.252Z,967.2
2019-04-03T07:52:58.630Z,967.2
2019-04-03T07:54:00.270Z,967.2
2019-04-03T07:55:01.521Z,967.2
2019-04-03T07:56:02.882Z,967.1
2019-04-03T07:57:07.862Z,967
2019-04-03T07:58:10.942Z,967.1
2019-04-03T07:59:12.761Z,967.1
2019-04-03T08:00:14.513Z,967.1
2019-04-03T08:01:19.815Z,967.1
2019-04-03T08:02:21.211Z,967.1
2019-04-03T08:03:22.724Z,967.1
2019-04-03T08:04:25.964Z,967.1
2019-04-03T08:05:30.100Z,967
2019-04-03T08:06:36.018Z,967.1
2019-04-03T08:07:38.170Z,967
2019-04-03T08:08:41.704Z,967
2019-04-03T08:09:45.518Z,967.1
2019-04-03T08:10:46.901Z,967.1
2019-04-03T08:11:48.723Z,967.1
2019-04-03T08:12:50.690Z,967.1
2019-04-03T08:13:51.944Z,967.1
2019-04-03T08:14:53.379Z,967.1
2019-04-03T08:15:57.092Z,967.1
2019-04-03T08:16:58.511Z,967.1
2019-04-03T08:18:00.104Z,967.1
2019-04-03T08:19:01.522Z,967.1
2019-04-03T08:20:03.494Z,967.1
2019-04-03T08:21:04.714Z,967.1
2019-04-03T08:22:05.974Z,967.1
2019-04-03T08:23:08.497Z,967
2019-04-03T08:24:10.280Z,967.1
2019-04-03T08:25:13.264Z,967.2
2019-04-03T08:26:14.554Z,967.2
2019-04-03T08:27:15.815Z,967.2
2019-04-03T08:28:17.064Z,967.2
2019-04-03T08:29:18.294Z,967.2
2019-04-03T08:30:22.442Z,967.1
2019-04-03T08:31:24.433Z,967.3
2019-04-03T08:32:25.994Z,967.2
2019-04-03T08:33:28.806Z,967.2
2019-04-03T08:34:35.238Z,967.1
2019-04-03T08:35:39.499Z,967.2
2019-04-03T08:36:41.086Z,967.1
2019-04-03T08:37:42.926Z,967.1
2019-04-03T08:38:46.465Z,967.1
2019-04-03T08:39:50.788Z,967.1
2019-04-03T08:40:53.809Z,967.1
2019-04-03T08:41:57.642Z,967.1
2019-04-03T08:43:01.433Z,967.1
2019-04-03T08:44:07.694Z,967.1
2019-04-03T08:45:14.494Z,966.9
2019-04-03T08:46:15.984Z,967.1
2019-04-03T08:47:18.460Z,967.1
2019-04-03T08:48:19.705Z,967.1
2019-04-03T08:49:20.986Z,967.1
2019-04-03T08:50:22.226Z,967.1
2019-04-03T08:51:23.535Z,967.1
2019-04-03T08:52:25.024Z,967
2019-04-03T08:53:26.505Z,967.1
2019-04-03T08:54:27.862Z,967.1
2019-04-03T08:55:30.305Z,967.1
2019-04-03T08:56:31.833Z,967.1
2019-04-03T08:57:33.116Z,967.1
2019-04-03T08:58:34.376Z,967.1
2019-04-03T08:59:35.639Z,967.1
2019-04-03T09:00:38.852Z,967.1
2019-04-03T09:01:40.453Z,967.1
2019-04-03T09:02:44.549Z,967
2019-04-03T09:03:48.242Z,967.1
2019-04-03T09:04:49.663Z,967.1
2019-04-03T09:05:55.603Z,967.1
2019-04-03T09:06:59.434Z,967.1
2019-04-03T09:08:05.506Z,967.1
2019-04-03T09:09:06.766Z,967.1
2019-04-03T09:10:08.781Z,967.1
2019-04-03T09:11:10.798Z,967.1
2019-04-03T09:12:12.234Z,967
2019-04-03T09:13:21.995Z,967
2019-04-03T09:14:28.539Z,967.1
2019-04-03T09:15:32.448Z,967
2019-04-03T09:16:33.716Z,967.1
2019-04-03T09:17:35.475Z,967
2019-04-03T09:18:39.332Z,967
2019-04-03T09:19:42.922Z,967
2019-04-03T09:20:44.902Z,967.1
2019-04-03T09:21:51.361Z,967
2019-04-03T09:22:55.282Z,967
2019-04-03T09:23:59.024Z,967
2019-04-03T09:25:01.511Z,967
2019-04-03T09:26:04.374Z,966.9
2019-04-03T09:27:08.127Z,966.9
2019-04-03T09:28:22.245Z,966.9
2019-04-03T09:29:24.087Z,966.9
2019-04-03T09:30:28.726Z,966.9
2019-04-03T09:31:30.249Z,966.9
2019-04-03T09:32:31.840Z,966.9
2019-04-03T09:33:33.410Z,966.9
2019-04-03T09:34:39.597Z,967
2019-04-03T09:35:43.890Z,966.9
2019-04-03T09:36:45.364Z,967
2019-04-03T09:37:47.358Z,966.9
2019-04-03T09:38:48.910Z,966.9
2019-04-03T09:39:50.487Z,966.9
2019-04-03T09:40:52.271Z,966.9
2019-04-03T09:41:54.662Z,966.9
2019-04-03T09:42:55.928Z,966.9
2019-04-03T09:43:58.793Z,966.8
2019-04-03T09:45:02.980Z,966.8
2019-04-03T09:46:04.429Z,966.8
2019-04-03T09:47:05.826Z,966.8
2019-04-03T09:48:07.110Z,966.8
2019-04-03T09:49:09.115Z,966.7
2019-04-03T09:50:11.890Z,966.7
2019-04-03T09:51:20.500Z,966.7
2019-04-03T09:52:37.037Z,966.7
2019-04-03T09:53:40.698Z,966.7
2019-04-03T09:54:42.568Z,966.7
2019-04-03T09:55:46.402Z,966.7
2019-04-03T09:57:04.548Z,966.7
2019-04-03T09:58:06.835Z,966.7
2019-04-03T09:59:08.898Z,966.7
2019-04-03T10:00:11.891Z,966.7
2019-04-03T10:01:27.199Z,966.6
2019-04-03T10:02:28.696Z,966.6
2019-04-03T10:03:32.269Z,966.6
2019-04-03T10:04:33.920Z,966.6
2019-04-03T10:05:35.984Z,966.6
2019-04-03T10:06:37.300Z,966.6
2019-04-03T10:07:39.190Z,966.5
2019-04-03T10:08:42.591Z,966.5
2019-04-03T10:09:45.018Z,966.5
2019-04-03T10:10:48.489Z,966.5
2019-04-03T10:11:52.633Z,966.4
2019-04-03T10:12:57.674Z,966.5
2019-04-03T10:14:02.160Z,966.5
2019-04-03T10:15:03.407Z,966.4
2019-04-03T10:16:05.122Z,966.4
2019-04-03T10:17:07.816Z,966.4
2019-04-03T10:18:11.973Z,966.2
2019-04-03T10:19:15.250Z,966.5
2019-04-03T10:20:19.634Z,966.2
2019-04-03T10:21:23.210Z,966.4
2019-04-03T10:22:27.789Z,966.4
2019-04-03T10:23:36.661Z,966.4
2019-04-03T10:24:40.305Z,966.4
2019-04-03T10:25:43.226Z,966.4
2019-04-03T10:26:45.857Z,966.4
2019-04-03T10:27:47.337Z,966.4
2019-04-03T10:28:49.141Z,966.4
2019-04-03T10:29:55.606Z,966.3
2019-04-03T10:32:19.118Z,966.3
2019-04-03T10:33:21.160Z,966.2
2019-04-03T10:34:25.803Z,966.2
2019-04-03T10:35:27.469Z,966.2
2019-04-03T10:36:29.550Z,966.3
2019-04-03T10:37:31.171Z,966.3
2019-04-03T10:38:32.782Z,966.2
2019-04-03T10:39:35.551Z,966.2
2019-04-03T10:40:47.641Z,966.2
2019-04-03T10:41:51.829Z,966.2
2019-04-03T10:42:55.037Z,966.2
2019-04-03T10:43:59.259Z,966.2
2019-04-03T10:45:01.113Z,966.2
2019-04-03T10:46:02.466Z,966.2
2019-04-03T10:47:03.729Z,966.3
2019-04-03T10:48:06.079Z,966.2
2019-04-03T10:49:07.416Z,966.2
2019-04-03T10:50:11.031Z,966.2
2019-04-03T10:51:12.880Z,966.2
2019-04-03T10:52:15.339Z,966.2
2019-04-03T10:53:17.805Z,966.2
2019-04-03T10:54:25.803Z,966.2
2019-04-03T10:55:29.494Z,966.2
2019-04-03T10:56:33.411Z,966.2
2019-04-03T10:57:35.680Z,966.2
2019-04-03T10:58:42.051Z,966.2
2019-04-03T10:59:43.898Z,966.1
2019-04-03T11:00:45.246Z,966.2
2019-04-03T11:01:46.780Z,966.2
2019-04-03T11:02:48.039Z,966.2
2019-04-03T11:03:49.323Z,966.1
2019-04-03T11:04:50.791Z,966.1
2019-04-03T11:05:52.812Z,966
2019-04-03T11:06:55.324Z,966
2019-04-03T11:07:57.098Z,966.1
2019-04-03T11:08:58.566Z,966.1
2019-04-03T11:10:00.277Z,966.1
2019-04-03T11:11:05.099Z,966.1
2019-04-03T11:12:09.504Z,966
2019-04-03T11:13:12.907Z,966
2019-04-03T11:14:14.175Z,966.1
2019-04-03T11:15:15.393Z,966
2019-04-03T11:16:20.191Z,966
2019-04-03T11:17:26.631Z,966
2019-04-03T11:18:28.251Z,966.1
2019-04-03T11:19:30.016Z,966.1
2019-04-03T11:20:31.725Z,966.1
2019-04-03T11:21:34.332Z,966.1
2019-04-03T11:22:42.574Z,966.2
2019-04-03T11:23:47.986Z,966.1
2019-04-03T11:24:49.644Z,966.1
2019-04-03T11:25:51.329Z,966.1
2019-04-03T11:26:53.310Z,966.1
2019-04-03T11:27:54.987Z,966.2
2019-04-03T11:28:56.779Z,966
2019-04-03T11:29:59.073Z,966.1
2019-04-03T11:31:02.073Z,966
2019-04-03T11:32:04.611Z,966.1
2019-04-03T11:33:05.952Z,966
2019-04-03T11:34:11.429Z,966
2019-04-03T11:35:12.768Z,965.9
2019-04-03T11:36:14.292Z,966
2019-04-03T11:37:15.947Z,966
2019-04-03T11:38:29.122Z,966
2019-04-03T11:39:30.941Z,966
2019-04-03T11:40:32.565Z,966
2019-04-03T11:41:34.417Z,966
2019-04-03T11:42:36.103Z,966
2019-04-03T11:43:37.683Z,965.9
2019-04-03T11:44:39.197Z,965.7
2019-04-03T11:45:40.791Z,965.9
2019-04-03T11:46:42.367Z,965.8
2019-04-03T11:47:46.918Z,965.9
2019-04-03T11:48:49.897Z,965.9
2019-04-03T11:49:53.480Z,965.8
2019-04-03T11:50:59.495Z,965.9
2019-04-03T11:52:03.971Z,966
2019-04-03T11:53:08.434Z,966
2019-04-03T11:54:09.867Z,965.9
2019-04-03T11:55:12.305Z,965.9
2019-04-03T11:56:14.605Z,965.9
2019-04-03T11:57:18.057Z,965.9
2019-04-03T11:58:22.456Z,965.9
2019-04-03T11:59:25.080Z,965.8
2019-04-03T12:00:26.530Z,965.8
2019-04-03T12:01:28.222Z,965.9
2019-04-03T12:02:29.463Z,965.9
2019-04-03T12:03:31.077Z,965.8
2019-04-03T12:04:36.918Z,965.8
2019-04-03T12:05:39.381Z,965.8
2019-04-03T12:06:41.059Z,965.9
2019-04-03T12:07:42.449Z,965.9
2019-04-03T12:08:46.841Z,965.9
2019-04-03T12:09:51.414Z,965.7
2019-04-03T12:10:52.875Z,965.9
2019-04-03T12:11:56.076Z,965.9
2019-04-03T12:12:58.091Z,965.9
2019-04-03T12:14:02.192Z,965.8
2019-04-03T12:15:03.423Z,965.7
2019-04-03T12:16:04.762Z,965.6
2019-04-03T12:17:06.708Z,965.7
2019-04-03T12:18:07.965Z,965.7
2019-04-03T12:19:10.335Z,965.8
2019-04-03T12:20:11.950Z,965.7
2019-04-03T12:21:16.449Z,965.7
2019-04-03T12:22:23.496Z,965.7
2019-04-03T12:23:28.304Z,965.7
2019-04-03T12:24:33.678Z,965.7
2019-04-03T12:25:40.637Z,965.6
2019-04-03T12:26:44.693Z,965.7
2019-04-03T12:28:06.924Z,965.6
2019-04-03T12:29:16.320Z,965.6
2019-04-03T12:30:18.234Z,965.6
2019-04-03T12:31:20.364Z,965.5
2019-04-03T12:32:41.379Z,965.5
2019-04-03T12:33:58.931Z,965.5
2019-04-03T12:35:02.569Z,965.5
2019-04-03T12:36:07.312Z,965.5
2019-04-03T12:37:08.914Z,965.5
2019-04-03T12:38:10.288Z,965.6
2019-04-03T12:39:11.584Z,965.6
2019-04-03T12:40:13.635Z,965.6
2019-04-03T12:41:16.593Z,965.6
2019-04-03T12:42:23.375Z,965.6
2019-04-03T12:43:25.094Z,965.5
2019-04-03T12:44:26.585Z,965.6
2019-04-03T12:45:28.958Z,965.5
2019-04-03T12:46:34.100Z,965.4
2019-04-03T12:47:35.701Z,965.5
2019-04-03T12:48:37.041Z,965.5
2019-04-03T12:49:38.976Z,965.5
2019-04-03T12:50:41.118Z,965.3
2019-04-03T12:51:42.429Z,965.4
2019-04-03T12:52:45.929Z,965.5
2019-04-03T12:53:49.162Z,965.4
2019-04-03T12:54:56.719Z,965.2
2019-04-03T12:55:58.916Z,965.4
2019-04-03T12:57:02.430Z,965.4
2019-04-03T12:58:06.436Z,965.4
2019-04-03T12:59:10.044Z,965.4
2019-04-03T13:00:15.711Z,965.4
2019-04-03T13:01:21.206Z,965.4
2019-04-03T13:02:22.501Z,965.4
2019-04-03T13:03:26.117Z,965.4
2019-04-03T13:04:32.435Z,965.4
2019-04-03T13:05:38.081Z,965.3
2019-04-03T13:06:42.566Z,965.3
2019-04-03T13:07:48.115Z,965.3
2019-04-03T13:08:49.504Z,965.3
2019-04-03T13:09:51.250Z,965.1
2019-04-03T13:10:53.005Z,965.2
2019-04-03T13:11:58.564Z,965.3
2019-04-03T13:12:59.851Z,964.7
2019-04-03T13:14:02.539Z,965.2
2019-04-03T13:15:06.860Z,965.2
2019-04-03T13:16:11.396Z,965.3
2019-04-03T13:17:15.405Z,965.3
2019-04-03T13:18:16.714Z,965.2
2019-04-03T13:19:18.275Z,965.2
2019-04-03T13:20:19.566Z,965.2
2019-04-03T13:21:23.398Z,965.3
2019-04-03T13:22:25.420Z,965.3
2019-04-03T13:23:26.774Z,965.3
2019-04-03T13:24:30.327Z,965.2
2019-04-03T13:25:34.237Z,965.3
2019-04-03T13:26:35.903Z,965.3
2019-04-03T13:27:37.566Z,965.2
2019-04-03T13:28:41.092Z,965.3
2019-04-03T13:29:42.696Z,965.3
2019-04-03T13:30:45.473Z,965.3
2019-04-03T13:31:48.586Z,965.2
2019-04-03T13:33:00.831Z,965.2
2019-04-03T13:34:04.550Z,965.2
2019-04-03T13:35:08.204Z,965.2
2019-04-03T13:36:09.785Z,965.2
2019-04-03T13:37:11.919Z,965.1
2019-04-03T13:38:13.727Z,965.2
2019-04-03T13:39:15.401Z,965.2
2019-04-03T13:40:16.759Z,965.2
2019-04-03T13:41:20.649Z,965.2
2019-04-03T13:42:22.078Z,965.2
2019-04-03T13:43:23.500Z,965.2